sensor_id;sensor_type;location;lat;lon;timestamp;P1;durP1;ratioP1;P2;durP2;ratioP2
12451;SDS011;6291;48.924;12.204;2023-08-07T00:03:53;2.00;;;0.88;;
12451;SDS011;6291;48.924;12.204;2023-08-07T00:08:57;1.00;;;0.30;;
12451;SDS011;6291;48.924;12.204;2023-08-07T00:14:02;1.23;;;0.53;;
12451;SDS011;6291;48.924;12.204;2023-08-07T00:19:06;0.90;;;0.50;;
12451;SDS011;6291;48.924;12.204;2023-08-07T00:24:09;1.48;;;0.50;;
12451;SDS011;6291;48.924;12.204;2023-08-07T00:29:14;1.00;;;0.60;;
12451;SDS011;6291;48.924;12.204;2023-08-07T00:34:18;0.60;;;0.40;;
12451;SDS011;6291;48.924;12.204;2023-08-07T00:39:21;1.27;;;0.70;;
12451;SDS011;6291;48.924;12.204;2023-08-07T00:44:26;0.80;;;0.40;;
12451;SDS011;6291;48.924;12.204;2023-08-07T00:49:30;1.17;;;0.28;;
12451;SDS011;6291;48.924;12.204;2023-08-07T00:54:34;0.20;;;0.20;;
12451;SDS011;6291;48.924;12.204;2023-08-07T00:59:39;0.37;;;0.20;;
12451;SDS011;6291;48.924;12.204;2023-08-07T01:04:43;0.20;;;0.20;;
12451;SDS011;6291;48.924;12.204;2023-08-07T01:09:47;0.20;;;0.20;;
12451;SDS011;6291;48.924;12.204;2023-08-07T01:14:52;0.33;;;0.30;;
12451;SDS011;6291;48.924;12.204;2023-08-07T01:20:01;0.65;;;0.40;;
12451;SDS011;6291;48.924;12.204;2023-08-07T01:25:07;0.40;;;0.40;;
12451;SDS011;6291;48.924;12.204;2023-08-07T01:30:14;0.28;;;0.28;;
12451;SDS011;6291;48.924;12.204;2023-08-07T01:35:26;0.50;;;0.30;;
12451;SDS011;6291;48.924;12.204;2023-08-07T01:40:33;0.35;;;0.20;;
12451;SDS011;6291;48.924;12.204;2023-08-07T01:45:40;0.40;;;0.30;;
12451;SDS011;6291;48.924;12.204;2023-08-07T01:50:44;0.30;;;0.30;;
12451;SDS011;6291;48.924;12.204;2023-08-07T01:55:51;0.50;;;0.30;;
12451;SDS011;6291;48.924;12.204;2023-08-07T02:00:55;0.20;;;0.20;;
12451;SDS011;6291;48.924;12.204;2023-08-07T02:05:59;0.10;;;0.10;;
12451;SDS011;6291;48.924;12.204;2023-08-07T02:11:05;0.70;;;0.33;;
12451;SDS011;6291;48.924;12.204;2023-08-07T02:16:08;0.60;;;0.30;;
12451;SDS011;6291;48.924;12.204;2023-08-07T02:21:12;0.57;;;0.40;;
12451;SDS011;6291;48.924;12.204;2023-08-07T02:26:17;0.70;;;0.40;;
12451;SDS011;6291;48.924;12.204;2023-08-07T02:31:20;0.50;;;0.40;;
12451;SDS011;6291;48.924;12.204;2023-08-07T02:36:24;0.65;;;0.20;;
12451;SDS011;6291;48.924;12.204;2023-08-07T02:41:29;0.30;;;0.28;;
12451;SDS011;6291;48.924;12.204;2023-08-07T02:46:35;0.40;;;0.30;;
12451;SDS011;6291;48.924;12.204;2023-08-07T02:51:38;0.52;;;0.28;;
12451;SDS011;6291;48.924;12.204;2023-08-07T02:56:43;0.30;;;0.23;;
12451;SDS011;6291;48.924;12.204;2023-08-07T03:01:47;0.40;;;0.30;;
12451;SDS011;6291;48.924;12.204;2023-08-07T03:06:51;0.68;;;0.20;;
12451;SDS011;6291;48.924;12.204;2023-08-07T03:11:57;0.10;;;0.10;;
12451;SDS011;6291;48.924;12.204;2023-08-07T03:17:05;0.47;;;0.20;;
12451;SDS011;6291;48.924;12.204;2023-08-07T03:22:09;2.13;;;0.20;;
12451;SDS011;6291;48.924;12.204;2023-08-07T03:27:14;0.50;;;0.30;;
12451;SDS011;6291;48.924;12.204;2023-08-07T03:32:18;0.60;;;0.28;;
12451;SDS011;6291;48.924;12.204;2023-08-07T03:37:22;0.32;;;0.17;;
12451;SDS011;6291;48.924;12.204;2023-08-07T03:42:27;0.75;;;0.38;;
12451;SDS011;6291;48.924;12.204;2023-08-07T03:47:30;0.20;;;0.20;;
12451;SDS011;6291;48.924;12.204;2023-08-07T03:52:34;0.47;;;0.40;;
12451;SDS011;6291;48.924;12.204;2023-08-07T03:57:39;1.70;;;0.50;;
12451;SDS011;6291;48.924;12.204;2023-08-07T04:02:43;0.57;;;0.50;;
12451;SDS011;6291;48.924;12.204;2023-08-07T04:07:48;0.85;;;0.50;;
12451;SDS011;6291;48.924;12.204;2023-08-07T04:12:53;1.03;;;0.33;;
12451;SDS011;6291;48.924;12.204;2023-08-07T04:17:56;1.13;;;0.60;;
12451;SDS011;6291;48.924;12.204;2023-08-07T04:23:00;0.50;;;0.40;;
12451;SDS011;6291;48.924;12.204;2023-08-07T04:28:05;1.48;;;0.57;;
12451;SDS011;6291;48.924;12.204;2023-08-07T04:33:08;1.23;;;0.70;;
12451;SDS011;6291;48.924;12.204;2023-08-07T04:38:12;2.30;;;0.80;;
12451;SDS011;6291;48.924;12.204;2023-08-07T04:43:17;1.80;;;0.60;;
12451;SDS011;6291;48.924;12.204;2023-08-07T04:48:22;1.00;;;0.50;;
12451;SDS011;6291;48.924;12.204;2023-08-07T04:53:27;0.52;;;0.40;;
12451;SDS011;6291;48.924;12.204;2023-08-07T04:58:32;0.13;;;0.13;;
12451;SDS011;6291;48.924;12.204;2023-08-07T05:03:35;1.80;;;0.80;;
12451;SDS011;6291;48.924;12.204;2023-08-07T05:08:39;0.25;;;0.25;;
12451;SDS011;6291;48.924;12.204;2023-08-07T05:13:44;0.40;;;0.20;;
12451;SDS011;6291;48.924;12.204;2023-08-07T05:18:47;0.00;;;0.00;;
12451;SDS011;6291;48.924;12.204;2023-08-07T05:23:51;0.10;;;0.10;;
12451;SDS011;6291;48.924;12.204;2023-08-07T05:28:58;0.27;;;0.10;;
12451;SDS011;6291;48.924;12.204;2023-08-07T05:34:01;0.70;;;0.60;;
12451;SDS011;6291;48.924;12.204;2023-08-07T05:39:05;0.40;;;0.20;;
12451;SDS011;6291;48.924;12.204;2023-08-07T05:44:10;0.13;;;0.07;;
12451;SDS011;6291;48.924;12.204;2023-08-07T05:49:13;0.10;;;0.10;;
12451;SDS011;6291;48.924;12.204;2023-08-07T05:54:17;0.28;;;0.28;;
12451;SDS011;6291;48.924;12.204;2023-08-07T05:59:21;0.30;;;0.30;;
12451;SDS011;6291;48.924;12.204;2023-08-07T06:04:25;0.50;;;0.20;;
12451;SDS011;6291;48.924;12.204;2023-08-07T06:09:28;0.85;;;0.22;;
12451;SDS011;6291;48.924;12.204;2023-08-07T06:14:33;0.20;;;0.20;;
12451;SDS011;6291;48.924;12.204;2023-08-07T06:19:37;0.30;;;0.30;;
12451;SDS011;6291;48.924;12.204;2023-08-07T06:24:40;0.40;;;0.20;;
12451;SDS011;6291;48.924;12.204;2023-08-07T06:29:45;0.10;;;0.10;;
12451;SDS011;6291;48.924;12.204;2023-08-07T06:34:48;0.60;;;0.15;;
12451;SDS011;6291;48.924;12.204;2023-08-07T06:39:52;0.50;;;0.30;;
12451;SDS011;6291;48.924;12.204;2023-08-07T06:44:56;1.40;;;0.20;;
12451;SDS011;6291;48.924;12.204;2023-08-07T06:50:00;0.40;;;0.20;;
12451;SDS011;6291;48.924;12.204;2023-08-07T06:55:04;0.38;;;0.30;;
12451;SDS011;6291;48.924;12.204;2023-08-07T07:00:10;0.28;;;0.28;;
12451;SDS011;6291;48.924;12.204;2023-08-07T07:05:14;0.50;;;0.43;;
12451;SDS011;6291;48.924;12.204;2023-08-07T07:10:21;0.30;;;0.30;;
12451;SDS011;6291;48.924;12.204;2023-08-07T07:15:26;0.68;;;0.10;;
12451;SDS011;6291;48.924;12.204;2023-08-07T07:20:29;2.50;;;1.00;;
12451;SDS011;6291;48.924;12.204;2023-08-07T07:25:32;0.13;;;0.13;;
12451;SDS011;6291;48.924;12.204;2023-08-07T07:30:37;0.47;;;0.47;;
12451;SDS011;6291;48.924;12.204;2023-08-07T07:35:42;0.80;;;0.37;;
12451;SDS011;6291;48.924;12.204;2023-08-07T07:40:45;1.27;;;0.30;;
12451;SDS011;6291;48.924;12.204;2023-08-07T07:45:50;0.35;;;0.30;;
12451;SDS011;6291;48.924;12.204;2023-08-07T07:50:57;0.43;;;0.40;;
12451;SDS011;6291;48.924;12.204;2023-08-07T07:56:02;1.98;;;0.50;;
12451;SDS011;6291;48.924;12.204;2023-08-07T08:01:07;0.60;;;0.60;;
12451;SDS011;6291;48.924;12.204;2023-08-07T08:06:11;0.45;;;0.45;;
12451;SDS011;6291;48.924;12.204;2023-08-07T08:11:15;1.33;;;0.63;;
12451;SDS011;6291;48.924;12.204;2023-08-07T08:16:20;1.30;;;0.60;;
12451;SDS011;6291;48.924;12.204;2023-08-07T08:21:24;2.33;;;1.00;;
12451;SDS011;6291;48.924;12.204;2023-08-07T08:26:27;2.20;;;0.80;;
12451;SDS011;6291;48.924;12.204;2023-08-07T08:31:32;2.80;;;1.10;;
12451;SDS011;6291;48.924;12.204;2023-08-07T08:36:36;1.40;;;0.60;;
12451;SDS011;6291;48.924;12.204;2023-08-07T08:41:39;1.73;;;0.90;;
12451;SDS011;6291;48.924;12.204;2023-08-07T08:46:45;3.22;;;1.30;;
12451;SDS011;6291;48.924;12.204;2023-08-07T08:51:55;0.88;;;0.75;;
12451;SDS011;6291;48.924;12.204;2023-08-07T08:57:00;1.88;;;0.80;;
12451;SDS011;6291;48.924;12.204;2023-08-07T09:02:06;3.88;;;0.70;;
12451;SDS011;6291;48.924;12.204;2023-08-07T09:07:09;1.92;;;0.80;;
12451;SDS011;6291;48.924;12.204;2023-08-07T09:12:16;3.60;;;2.00;;
12451;SDS011;6291;48.924;12.204;2023-08-07T09:17:26;1.47;;;1.10;;
12451;SDS011;6291;48.924;12.204;2023-08-07T09:22:31;2.85;;;0.90;;
12451;SDS011;6291;48.924;12.204;2023-08-07T09:27:35;2.10;;;1.35;;
12451;SDS011;6291;48.924;12.204;2023-08-07T09:32:41;4.05;;;1.10;;
12451;SDS011;6291;48.924;12.204;2023-08-07T09:37:44;1.10;;;0.70;;
12451;SDS011;6291;48.924;12.204;2023-08-07T09:42:49;1.90;;;1.23;;
12451;SDS011;6291;48.924;12.204;2023-08-07T09:47:59;1.53;;;1.17;;
12451;SDS011;6291;48.924;12.204;2023-08-07T09:53:03;3.00;;;1.30;;
12451;SDS011;6291;48.924;12.204;2023-08-07T09:58:09;3.70;;;1.30;;
12451;SDS011;6291;48.924;12.204;2023-08-07T10:03:16;3.93;;;1.50;;
12451;SDS011;6291;48.924;12.204;2023-08-07T10:08:19;1.85;;;1.08;;
12451;SDS011;6291;48.924;12.204;2023-08-07T10:13:24;2.87;;;1.50;;
12451;SDS011;6291;48.924;12.204;2023-08-07T10:18:41;3.55;;;1.70;;
12451;SDS011;6291;48.924;12.204;2023-08-07T10:23:45;3.20;;;1.63;;
12451;SDS011;6291;48.924;12.204;2023-08-07T10:28:50;3.13;;;1.73;;
12451;SDS011;6291;48.924;12.204;2023-08-07T10:33:57;4.63;;;1.60;;
12451;SDS011;6291;48.924;12.204;2023-08-07T10:39:07;1.80;;;1.27;;
12451;SDS011;6291;48.924;12.204;2023-08-07T10:44:18;2.42;;;1.20;;
12451;SDS011;6291;48.924;12.204;2023-08-07T10:49:33;3.92;;;1.38;;
12451;SDS011;6291;48.924;12.204;2023-08-07T10:54:39;4.28;;;1.55;;
12451;SDS011;6291;48.924;12.204;2023-08-07T10:59:44;4.30;;;1.13;;
12451;SDS011;6291;48.924;12.204;2023-08-07T11:04:53;1.67;;;1.13;;
12451;SDS011;6291;48.924;12.204;2023-08-07T11:09:57;2.78;;;1.00;;
12451;SDS011;6291;48.924;12.204;2023-08-07T11:15:01;2.23;;;0.90;;
12451;SDS011;6291;48.924;12.204;2023-08-07T11:20:07;2.10;;;0.90;;
12451;SDS011;6291;48.924;12.204;2023-08-07T11:25:12;1.53;;;0.80;;
12451;SDS011;6291;48.924;12.204;2023-08-07T11:30:17;1.97;;;0.80;;
12451;SDS011;6291;48.924;12.204;2023-08-07T11:35:22;2.22;;;0.80;;
12451;SDS011;6291;48.924;12.204;2023-08-07T11:40:25;2.33;;;0.63;;
12451;SDS011;6291;48.924;12.204;2023-08-07T11:45:29;3.30;;;0.70;;
12451;SDS011;6291;48.924;12.204;2023-08-07T11:50:34;2.00;;;0.60;;
12451;SDS011;6291;48.924;12.204;2023-08-07T11:55:42;1.58;;;0.50;;
12451;SDS011;6291;48.924;12.204;2023-08-07T12:00:49;2.20;;;0.80;;
12451;SDS011;6291;48.924;12.204;2023-08-07T12:05:55;1.70;;;0.63;;
12451;SDS011;6291;48.924;12.204;2023-08-07T12:11:00;0.95;;;0.60;;
12451;SDS011;6291;48.924;12.204;2023-08-07T12:16:06;0.43;;;0.43;;
12451;SDS011;6291;48.924;12.204;2023-08-07T12:21:13;1.00;;;0.57;;
12451;SDS011;6291;48.924;12.204;2023-08-07T12:26:17;1.45;;;0.50;;
12451;SDS011;6291;48.924;12.204;2023-08-07T12:31:21;0.70;;;0.47;;
12451;SDS011;6291;48.924;12.204;2023-08-07T12:36:26;0.82;;;0.50;;
12451;SDS011;6291;48.924;12.204;2023-08-07T12:41:29;1.00;;;0.60;;
12451;SDS011;6291;48.924;12.204;2023-08-07T12:46:35;2.15;;;0.70;;
12451;SDS011;6291;48.924;12.204;2023-08-07T12:51:42;1.55;;;0.70;;
12451;SDS011;6291;48.924;12.204;2023-08-07T12:56:45;1.43;;;0.60;;
12451;SDS011;6291;48.924;12.204;2023-08-07T13:01:49;1.20;;;0.70;;
12451;SDS011;6291;48.924;12.204;2023-08-07T13:06:56;0.68;;;0.60;;
12451;SDS011;6291;48.924;12.204;2023-08-07T13:12:00;0.93;;;0.50;;
12451;SDS011;6291;48.924;12.204;2023-08-07T13:17:03;0.90;;;0.70;;
12451;SDS011;6291;48.924;12.204;2023-08-07T13:22:08;1.30;;;0.70;;
12451;SDS011;6291;48.924;12.204;2023-08-07T13:27:12;1.23;;;0.93;;
12451;SDS011;6291;48.924;12.204;2023-08-07T13:32:15;1.77;;;1.15;;
12451;SDS011;6291;48.924;12.204;2023-08-07T13:37:21;1.58;;;0.82;;
12451;SDS011;6291;48.924;12.204;2023-08-07T13:42:25;1.60;;;0.85;;
12451;SDS011;6291;48.924;12.204;2023-08-07T13:47:29;1.33;;;0.90;;
12451;SDS011;6291;48.924;12.204;2023-08-07T13:52:34;1.17;;;0.50;;
12451;SDS011;6291;48.924;12.204;2023-08-07T13:57:37;1.85;;;0.90;;
12451;SDS011;6291;48.924;12.204;2023-08-07T14:02:41;1.60;;;0.50;;
12451;SDS011;6291;48.924;12.204;2023-08-07T14:07:45;0.95;;;0.45;;
12451;SDS011;6291;48.924;12.204;2023-08-07T14:12:49;3.00;;;1.40;;
12451;SDS011;6291;48.924;12.204;2023-08-07T14:17:52;1.27;;;0.73;;
12451;SDS011;6291;48.924;12.204;2023-08-07T14:22:57;1.73;;;0.63;;
12451;SDS011;6291;48.924;12.204;2023-08-07T14:28:20;1.83;;;0.70;;
12451;SDS011;6291;48.924;12.204;2023-08-07T14:33:24;1.13;;;0.57;;
12451;SDS011;6291;48.924;12.204;2023-08-07T14:38:29;0.80;;;0.67;;
12451;SDS011;6291;48.924;12.204;2023-08-07T14:43:32;1.05;;;0.50;;
12451;SDS011;6291;48.924;12.204;2023-08-07T14:48:36;2.50;;;1.10;;
12451;SDS011;6291;48.924;12.204;2023-08-07T14:53:41;1.70;;;0.98;;
12451;SDS011;6291;48.924;12.204;2023-08-07T14:58:44;1.20;;;0.60;;
12451;SDS011;6291;48.924;12.204;2023-08-07T15:03:48;2.30;;;0.70;;
12451;SDS011;6291;48.924;12.204;2023-08-07T15:08:52;1.30;;;0.60;;
12451;SDS011;6291;48.924;12.204;2023-08-07T15:13:56;3.65;;;1.13;;
12451;SDS011;6291;48.924;12.204;2023-08-07T15:18:59;2.92;;;0.98;;
12451;SDS011;6291;48.924;12.204;2023-08-07T15:24:04;1.85;;;0.77;;
12451;SDS011;6291;48.924;12.204;2023-08-07T15:29:08;1.03;;;0.80;;
12451;SDS011;6291;48.924;12.204;2023-08-07T15:34:11;2.10;;;0.50;;
12451;SDS011;6291;48.924;12.204;2023-08-07T15:39:16;1.70;;;0.70;;
12451;SDS011;6291;48.924;12.204;2023-08-07T15:44:20;1.90;;;0.43;;
12451;SDS011;6291;48.924;12.204;2023-08-07T15:49:23;0.85;;;0.60;;
12451;SDS011;6291;48.924;12.204;2023-08-07T15:54:29;1.02;;;0.77;;
12451;SDS011;6291;48.924;12.204;2023-08-07T15:59:32;1.70;;;1.20;;
12451;SDS011;6291;48.924;12.204;2023-08-07T16:04:36;1.27;;;0.60;;
12451;SDS011;6291;48.924;12.204;2023-08-07T16:09:41;2.30;;;0.60;;
12451;SDS011;6291;48.924;12.204;2023-08-07T16:14:44;1.93;;;0.80;;
12451;SDS011;6291;48.924;12.204;2023-08-07T16:19:49;3.13;;;1.67;;
12451;SDS011;6291;48.924;12.204;2023-08-07T16:24:54;1.48;;;1.25;;
12451;SDS011;6291;48.924;12.204;2023-08-07T16:29:57;1.23;;;0.65;;
12451;SDS011;6291;48.924;12.204;2023-08-07T16:35:07;2.30;;;0.80;;
12451;SDS011;6291;48.924;12.204;2023-08-07T16:40:12;1.00;;;0.68;;
12451;SDS011;6291;48.924;12.204;2023-08-07T16:45:16;4.40;;;1.88;;
12451;SDS011;6291;48.924;12.204;2023-08-07T16:50:21;2.00;;;0.98;;
12451;SDS011;6291;48.924;12.204;2023-08-07T16:55:26;1.98;;;1.23;;
12451;SDS011;6291;48.924;12.204;2023-08-07T17:00:30;1.30;;;0.90;;
12451;SDS011;6291;48.924;12.204;2023-08-07T17:05:36;5.70;;;1.90;;
12451;SDS011;6291;48.924;12.204;2023-08-07T17:10:41;6.27;;;2.13;;
12451;SDS011;6291;48.924;12.204;2023-08-07T17:15:45;3.22;;;1.58;;
12451;SDS011;6291;48.924;12.204;2023-08-07T17:20:49;2.27;;;1.00;;
12451;SDS011;6291;48.924;12.204;2023-08-07T17:25:54;1.88;;;1.20;;
12451;SDS011;6291;48.924;12.204;2023-08-07T17:30:59;1.83;;;1.30;;
12451;SDS011;6291;48.924;12.204;2023-08-07T17:36:03;2.30;;;1.20;;
12451;SDS011;6291;48.924;12.204;2023-08-07T17:41:10;2.00;;;1.10;;
12451;SDS011;6291;48.924;12.204;2023-08-07T17:46:14;2.77;;;1.83;;
12451;SDS011;6291;48.924;12.204;2023-08-07T17:51:17;2.05;;;1.35;;
12451;SDS011;6291;48.924;12.204;2023-08-07T17:56:24;1.17;;;0.90;;
12451;SDS011;6291;48.924;12.204;2023-08-07T18:01:27;1.25;;;1.00;;
12451;SDS011;6291;48.924;12.204;2023-08-07T18:06:31;1.33;;;1.20;;
12451;SDS011;6291;48.924;12.204;2023-08-07T18:11:36;2.70;;;1.75;;
12451;SDS011;6291;48.924;12.204;2023-08-07T18:16:40;1.90;;;1.02;;
12451;SDS011;6291;48.924;12.204;2023-08-07T18:21:43;1.88;;;1.02;;
12451;SDS011;6291;48.924;12.204;2023-08-07T18:26:49;1.98;;;1.17;;
12451;SDS011;6291;48.924;12.204;2023-08-07T18:31:53;1.85;;;1.17;;
12451;SDS011;6291;48.924;12.204;2023-08-07T18:36:56;2.10;;;1.20;;
12451;SDS011;6291;48.924;12.204;2023-08-07T18:42:02;1.88;;;1.10;;
12451;SDS011;6291;48.924;12.204;2023-08-07T18:47:06;2.25;;;1.00;;
12451;SDS011;6291;48.924;12.204;2023-08-07T18:52:10;2.75;;;1.10;;
12451;SDS011;6291;48.924;12.204;2023-08-07T18:57:15;2.88;;;1.10;;
12451;SDS011;6291;48.924;12.204;2023-08-07T19:02:19;3.03;;;1.25;;
12451;SDS011;6291;48.924;12.204;2023-08-07T19:07:23;1.63;;;1.20;;
12451;SDS011;6291;48.924;12.204;2023-08-07T19:12:28;2.05;;;1.40;;
12451;SDS011;6291;48.924;12.204;2023-08-07T19:17:31;1.80;;;1.30;;
12451;SDS011;6291;48.924;12.204;2023-08-07T19:22:36;2.40;;;1.30;;
12451;SDS011;6291;48.924;12.204;2023-08-07T19:27:41;5.87;;;3.63;;
12451;SDS011;6291;48.924;12.204;2023-08-07T19:32:45;2.40;;;1.20;;
12451;SDS011;6291;48.924;12.204;2023-08-07T19:37:48;2.13;;;1.40;;
12451;SDS011;6291;48.924;12.204;2023-08-07T19:42:53;2.50;;;1.43;;
12451;SDS011;6291;48.924;12.204;2023-08-07T19:47:57;2.07;;;1.40;;
12451;SDS011;6291;48.924;12.204;2023-08-07T19:53:01;2.63;;;1.30;;
12451;SDS011;6291;48.924;12.204;2023-08-07T19:58:06;2.10;;;1.30;;
12451;SDS011;6291;48.924;12.204;2023-08-07T20:03:10;1.43;;;1.30;;
12451;SDS011;6291;48.924;12.204;2023-08-07T20:08:15;2.15;;;1.48;;
12451;SDS011;6291;48.924;12.204;2023-08-07T20:13:20;3.70;;;1.70;;
12451;SDS011;6291;48.924;12.204;2023-08-07T20:18:24;4.30;;;2.67;;
12451;SDS011;6291;48.924;12.204;2023-08-07T20:23:28;2.75;;;1.90;;
12451;SDS011;6291;48.924;12.204;2023-08-07T20:28:33;2.57;;;1.53;;
12451;SDS011;6291;48.924;12.204;2023-08-07T20:33:36;3.13;;;2.08;;
12451;SDS011;6291;48.924;12.204;2023-08-07T20:38:40;3.42;;;1.70;;
12451;SDS011;6291;48.924;12.204;2023-08-07T20:43:46;2.88;;;1.73;;
12451;SDS011;6291;48.924;12.204;2023-08-07T20:48:50;3.05;;;1.67;;
12451;SDS011;6291;48.924;12.204;2023-08-07T20:53:54;2.22;;;1.70;;
12451;SDS011;6291;48.924;12.204;2023-08-07T20:58:59;2.70;;;1.65;;
12451;SDS011;6291;48.924;12.204;2023-08-07T21:04:03;3.20;;;1.60;;
12451;SDS011;6291;48.924;12.204;2023-08-07T21:09:06;2.95;;;1.85;;
12451;SDS011;6291;48.924;12.204;2023-08-07T21:14:11;1.92;;;1.60;;
12451;SDS011;6291;48.924;12.204;2023-08-07T21:19:15;2.40;;;1.67;;
12451;SDS011;6291;48.924;12.204;2023-08-07T21:24:18;2.72;;;1.70;;
12451;SDS011;6291;48.924;12.204;2023-08-07T21:29:23;5.45;;;3.33;;
12451;SDS011;6291;48.924;12.204;2023-08-07T21:34:27;2.55;;;1.80;;
12451;SDS011;6291;48.924;12.204;2023-08-07T21:39:31;3.75;;;2.10;;
12451;SDS011;6291;48.924;12.204;2023-08-07T21:44:35;2.50;;;1.60;;
12451;SDS011;6291;48.924;12.204;2023-08-07T21:49:39;1.83;;;1.50;;
12451;SDS011;6291;48.924;12.204;2023-08-07T21:54:43;3.27;;;2.00;;
12451;SDS011;6291;48.924;12.204;2023-08-07T21:59:48;2.40;;;2.00;;
12451;SDS011;6291;48.924;12.204;2023-08-07T22:04:52;2.27;;;1.80;;
12451;SDS011;6291;48.924;12.204;2023-08-07T22:09:55;2.92;;;1.90;;
12451;SDS011;6291;48.924;12.204;2023-08-07T22:15:01;2.72;;;1.80;;
12451;SDS011;6291;48.924;12.204;2023-08-07T22:20:06;1.90;;;1.70;;
12451;SDS011;6291;48.924;12.204;2023-08-07T22:25:12;2.03;;;1.63;;
12451;SDS011;6291;48.924;12.204;2023-08-07T22:30:17;2.95;;;1.95;;
12451;SDS011;6291;48.924;12.204;2023-08-07T22:35:22;2.73;;;1.97;;
12451;SDS011;6291;48.924;12.204;2023-08-07T22:40:26;2.45;;;2.00;;
12451;SDS011;6291;48.924;12.204;2023-08-07T22:45:31;2.80;;;2.17;;
12451;SDS011;6291;48.924;12.204;2023-08-07T22:50:35;2.57;;;2.13;;
12451;SDS011;6291;48.924;12.204;2023-08-07T22:55:38;2.85;;;1.92;;
12451;SDS011;6291;48.924;12.204;2023-08-07T23:00:44;3.50;;;2.20;;
12451;SDS011;6291;48.924;12.204;2023-08-07T23:05:47;3.00;;;2.70;;
12451;SDS011;6291;48.924;12.204;2023-08-07T23:10:51;3.10;;;2.50;;
12451;SDS011;6291;48.924;12.204;2023-08-07T23:15:56;3.40;;;2.40;;
12451;SDS011;6291;48.924;12.204;2023-08-07T23:21:00;4.65;;;3.03;;
12451;SDS011;6291;48.924;12.204;2023-08-07T23:26:04;3.92;;;2.67;;
12451;SDS011;6291;48.924;12.204;2023-08-07T23:31:09;5.07;;;3.17;;
12451;SDS011;6291;48.924;12.204;2023-08-07T23:36:13;2.70;;;2.50;;
12451;SDS011;6291;48.924;12.204;2023-08-07T23:41:16;2.47;;;2.20;;
12451;SDS011;6291;48.924;12.204;2023-08-07T23:46:22;2.40;;;2.20;;
12451;SDS011;6291;48.924;12.204;2023-08-07T23:51:26;12.13;;;9.43;;
12451;SDS011;6291;48.924;12.204;2023-08-07T23:56:30;8.05;;;5.50;;
